Holts Summit, Missouri
Current Conditions -  °F | °C
As of 6:19 AM on Monday 22 Dec 2014 (Local Time) from KJEF Reporting Station
Haze Haze  
Wind Chill: 37°   Ceiling: 1400
Heat Index: 41°   Visibility: 5mi
Dew Point: 38°   Wind: 6mph
Humidity: 89%   Direction: 90°E
Pressure: 29.71"   Gusts: NA
Location:  38.64°N, 92.12°W
Report Text: KJEF 221219Z 09005KT 5SM BR OVC014 05/03 A2971 RMK AO2 P0001 T00500033
Loading
Personal Weather Stations






























Interactive Weather Map New forecast layout! Learn more

10-Day Weather Forecast

Advertisements
Track Severe Weather on mobile